sensor_id;sensor_type;location;lat;lon;timestamp;P1;durP1;ratioP1;P2;durP2;ratioP2
36995;SDS011;22905;50.340;10.776;2022-09-29T00:02:57;8.98;;;6.00;;
36995;SDS011;22905;50.340;10.776;2022-09-29T00:07:57;10.73;;;4.75;;
36995;SDS011;22905;50.340;10.776;2022-09-29T00:12:58;9.50;;;4.70;;
36995;SDS011;22905;50.340;10.776;2022-09-29T00:17:58;6.03;;;4.20;;
36995;SDS011;22905;50.340;10.776;2022-09-29T00:22:59;11.63;;;5.75;;
36995;SDS011;22905;50.340;10.776;2022-09-29T00:27:59;4.73;;;3.47;;
36995;SDS011;22905;50.340;10.776;2022-09-29T00:32:59;8.65;;;4.70;;
36995;SDS011;22905;50.340;10.776;2022-09-29T00:38:00;7.15;;;4.90;;
36995;SDS011;22905;50.340;10.776;2022-09-29T00:43:00;8.38;;;5.13;;
36995;SDS011;22905;50.340;10.776;2022-09-29T00:53:09;10.98;;;6.28;;
36995;SDS011;22905;50.340;10.776;2022-09-29T00:58:18;13.85;;;5.90;;
36995;SDS011;22905;50.340;10.776;2022-09-29T01:03:42;13.18;;;6.13;;
36995;SDS011;22905;50.340;10.776;2022-09-29T01:13:45;10.55;;;5.40;;
36995;SDS011;22905;50.340;10.776;2022-09-29T01:18:46;9.73;;;5.32;;
36995;SDS011;22905;50.340;10.776;2022-09-29T01:23:54;7.60;;;5.30;;
36995;SDS011;22905;50.340;10.776;2022-09-29T01:29:21;7.43;;;4.65;;
36995;SDS011;22905;50.340;10.776;2022-09-29T01:40:02;6.85;;;4.40;;
36995;SDS011;22905;50.340;10.776;2022-09-29T01:50:26;8.82;;;5.40;;
36995;SDS011;22905;50.340;10.776;2022-09-29T01:55:29;8.68;;;5.28;;
36995;SDS011;22905;50.340;10.776;2022-09-29T02:00:31;11.37;;;5.23;;
36995;SDS011;22905;50.340;10.776;2022-09-29T02:05:40;11.35;;;5.22;;
36995;SDS011;22905;50.340;10.776;2022-09-29T02:15:54;7.47;;;4.90;;
36995;SDS011;22905;50.340;10.776;2022-09-29T02:20:56;7.45;;;5.13;;
36995;SDS011;22905;50.340;10.776;2022-09-29T02:25:56;9.33;;;5.13;;
36995;SDS011;22905;50.340;10.776;2022-09-29T02:30:57;7.95;;;5.20;;
36995;SDS011;22905;50.340;10.776;2022-09-29T02:52:13;10.82;;;5.80;;
36995;SDS011;22905;50.340;10.776;2022-09-29T02:57:18;11.77;;;6.35;;
36995;SDS011;22905;50.340;10.776;2022-09-29T03:02:26;11.25;;;6.57;;
36995;SDS011;22905;50.340;10.776;2022-09-29T03:07:26;9.60;;;6.63;;
36995;SDS011;22905;50.340;10.776;2022-09-29T03:12:27;10.17;;;5.47;;
36995;SDS011;22905;50.340;10.776;2022-09-29T03:17:27;7.50;;;5.05;;
36995;SDS011;22905;50.340;10.776;2022-09-29T03:22:28;9.40;;;5.00;;
36995;SDS011;22905;50.340;10.776;2022-09-29T03:27:28;8.87;;;5.43;;
36995;SDS011;22905;50.340;10.776;2022-09-29T03:32:28;8.90;;;5.28;;
36995;SDS011;22905;50.340;10.776;2022-09-29T03:37:29;11.45;;;5.25;;
36995;SDS011;22905;50.340;10.776;2022-09-29T03:42:29;11.82;;;5.25;;
36995;SDS011;22905;50.340;10.776;2022-09-29T03:47:29;9.23;;;5.55;;
36995;SDS011;22905;50.340;10.776;2022-09-29T03:52:30;8.73;;;4.80;;
36995;SDS011;22905;50.340;10.776;2022-09-29T03:57:31;12.18;;;6.97;;
36995;SDS011;22905;50.340;10.776;2022-09-29T04:02:31;7.80;;;5.65;;
36995;SDS011;22905;50.340;10.776;2022-09-29T04:07:33;7.93;;;4.90;;
36995;SDS011;22905;50.340;10.776;2022-09-29T04:12:33;10.75;;;5.68;;
36995;SDS011;22905;50.340;10.776;2022-09-29T04:17:34;10.27;;;5.83;;
36995;SDS011;22905;50.340;10.776;2022-09-29T04:22:34;17.93;;;9.03;;
36995;SDS011;22905;50.340;10.776;2022-09-29T04:27:34;16.67;;;7.78;;
36995;SDS011;22905;50.340;10.776;2022-09-29T04:32:36;14.32;;;6.63;;
36995;SDS011;22905;50.340;10.776;2022-09-29T04:37:36;8.93;;;5.25;;
36995;SDS011;22905;50.340;10.776;2022-09-29T04:42:37;10.60;;;6.00;;
36995;SDS011;22905;50.340;10.776;2022-09-29T04:47:37;12.23;;;6.70;;
36995;SDS011;22905;50.340;10.776;2022-09-29T04:52:37;8.70;;;5.93;;
36995;SDS011;22905;50.340;10.776;2022-09-29T04:57:41;14.65;;;8.95;;
36995;SDS011;22905;50.340;10.776;2022-09-29T05:02:43;10.98;;;7.05;;
36995;SDS011;22905;50.340;10.776;2022-09-29T05:07:43;14.90;;;7.10;;
36995;SDS011;22905;50.340;10.776;2022-09-29T05:12:48;11.95;;;6.70;;
36995;SDS011;22905;50.340;10.776;2022-09-29T05:17:49;13.35;;;7.18;;
36995;SDS011;22905;50.340;10.776;2022-09-29T05:22:49;23.07;;;13.60;;
36995;SDS011;22905;50.340;10.776;2022-09-29T05:27:49;18.88;;;9.50;;
36995;SDS011;22905;50.340;10.776;2022-09-29T05:32:50;13.60;;;8.65;;
36995;SDS011;22905;50.340;10.776;2022-09-29T05:37:51;16.42;;;8.02;;
36995;SDS011;22905;50.340;10.776;2022-09-29T05:42:51;11.93;;;6.70;;
36995;SDS011;22905;50.340;10.776;2022-09-29T05:47:52;20.50;;;9.68;;
36995;SDS011;22905;50.340;10.776;2022-09-29T05:52:53;12.23;;;7.20;;
36995;SDS011;22905;50.340;10.776;2022-09-29T05:57:54;17.13;;;7.85;;
36995;SDS011;22905;50.340;10.776;2022-09-29T06:02:54;11.65;;;7.20;;
36995;SDS011;22905;50.340;10.776;2022-09-29T06:12:57;13.40;;;8.00;;
36995;SDS011;22905;50.340;10.776;2022-09-29T06:17:58;11.10;;;7.13;;
36995;SDS011;22905;50.340;10.776;2022-09-29T06:22:58;10.23;;;6.57;;
36995;SDS011;22905;50.340;10.776;2022-09-29T06:27:58;11.57;;;6.97;;
36995;SDS011;22905;50.340;10.776;2022-09-29T06:32:59;21.80;;;12.45;;
36995;SDS011;22905;50.340;10.776;2022-09-29T06:37:59;18.80;;;8.25;;
36995;SDS011;22905;50.340;10.776;2022-09-29T06:43:00;11.20;;;6.82;;
36995;SDS011;22905;50.340;10.776;2022-09-29T06:48:01;12.82;;;7.22;;
36995;SDS011;22905;50.340;10.776;2022-09-29T06:53:02;11.07;;;7.18;;
36995;SDS011;22905;50.340;10.776;2022-09-29T06:58:02;8.80;;;5.95;;
36995;SDS011;22905;50.340;10.776;2022-09-29T07:03:03;10.70;;;6.65;;
36995;SDS011;22905;50.340;10.776;2022-09-29T07:08:03;13.20;;;7.17;;
36995;SDS011;22905;50.340;10.776;2022-09-29T07:13:04;12.73;;;8.73;;
36995;SDS011;22905;50.340;10.776;2022-09-29T07:18:04;9.90;;;6.85;;
36995;SDS011;22905;50.340;10.776;2022-09-29T07:23:05;10.40;;;6.70;;
36995;SDS011;22905;50.340;10.776;2022-09-29T07:28:07;15.05;;;8.88;;
36995;SDS011;22905;50.340;10.776;2022-09-29T07:33:08;20.63;;;12.05;;
36995;SDS011;22905;50.340;10.776;2022-09-29T07:38:08;18.77;;;10.40;;
36995;SDS011;22905;50.340;10.776;2022-09-29T07:43:08;23.88;;;11.85;;
36995;SDS011;22905;50.340;10.776;2022-09-29T07:48:09;23.63;;;11.47;;
36995;SDS011;22905;50.340;10.776;2022-09-29T07:53:09;20.23;;;11.35;;
36995;SDS011;22905;50.340;10.776;2022-09-29T07:58:10;27.73;;;11.90;;
36995;SDS011;22905;50.340;10.776;2022-09-29T08:03:10;18.63;;;10.95;;
36995;SDS011;22905;50.340;10.776;2022-09-29T08:08:11;17.38;;;10.90;;
36995;SDS011;22905;50.340;10.776;2022-09-29T08:13:11;18.90;;;9.70;;
36995;SDS011;22905;50.340;10.776;2022-09-29T08:18:12;18.70;;;9.60;;
36995;SDS011;22905;50.340;10.776;2022-09-29T08:23:12;19.17;;;9.88;;
36995;SDS011;22905;50.340;10.776;2022-09-29T08:28:12;18.13;;;8.85;;
36995;SDS011;22905;50.340;10.776;2022-09-29T08:33:12;20.23;;;10.35;;
36995;SDS011;22905;50.340;10.776;2022-09-29T08:38:14;22.17;;;10.13;;
36995;SDS011;22905;50.340;10.776;2022-09-29T08:43:16;16.80;;;8.30;;
36995;SDS011;22905;50.340;10.776;2022-09-29T08:48:20;21.45;;;10.27;;
36995;SDS011;22905;50.340;10.776;2022-09-29T08:53:23;18.67;;;9.98;;
36995;SDS011;22905;50.340;10.776;2022-09-29T08:58:24;12.70;;;8.83;;
36995;SDS011;22905;50.340;10.776;2022-09-29T09:03:36;14.55;;;8.25;;
36995;SDS011;22905;50.340;10.776;2022-09-29T09:24:36;16.42;;;10.63;;
36995;SDS011;22905;50.340;10.776;2022-09-29T09:29:42;19.55;;;10.07;;
36995;SDS011;22905;50.340;10.776;2022-09-29T09:34:45;13.88;;;8.85;;
36995;SDS011;22905;50.340;10.776;2022-09-29T09:45:17;12.88;;;7.05;;
36995;SDS011;22905;50.340;10.776;2022-09-29T09:50:27;13.07;;;7.75;;
36995;SDS011;22905;50.340;10.776;2022-09-29T09:55:27;7.77;;;5.60;;
36995;SDS011;22905;50.340;10.776;2022-09-29T10:00:37;11.93;;;5.75;;
36995;SDS011;22905;50.340;10.776;2022-09-29T10:05:50;19.10;;;6.47;;
36995;SDS011;22905;50.340;10.776;2022-09-29T10:10:51;12.87;;;7.03;;
36995;SDS011;22905;50.340;10.776;2022-09-29T10:26:43;8.30;;;5.35;;
36995;SDS011;22905;50.340;10.776;2022-09-29T10:31:56;10.25;;;4.75;;
36995;SDS011;22905;50.340;10.776;2022-09-29T10:37:03;11.48;;;5.07;;
36995;SDS011;22905;50.340;10.776;2022-09-29T10:42:16;10.75;;;6.43;;
36995;SDS011;22905;50.340;10.776;2022-09-29T10:47:20;13.18;;;7.95;;
36995;SDS011;22905;50.340;10.776;2022-09-29T10:52:22;11.70;;;5.93;;
36995;SDS011;22905;50.340;10.776;2022-09-29T10:57:26;9.35;;;6.40;;
36995;SDS011;22905;50.340;10.776;2022-09-29T11:02:36;7.72;;;5.90;;
36995;SDS011;22905;50.340;10.776;2022-09-29T11:07:42;14.02;;;6.70;;
36995;SDS011;22905;50.340;10.776;2022-09-29T11:12:44;11.38;;;7.53;;
36995;SDS011;22905;50.340;10.776;2022-09-29T11:17:47;8.77;;;6.05;;
36995;SDS011;22905;50.340;10.776;2022-09-29T11:28:18;12.43;;;6.15;;
36995;SDS011;22905;50.340;10.776;2022-09-29T11:55:24;10.15;;;7.15;;
36995;SDS011;22905;50.340;10.776;2022-09-29T12:00:41;8.70;;;5.45;;
36995;SDS011;22905;50.340;10.776;2022-09-29T12:11:21;5.68;;;4.18;;
36995;SDS011;22905;50.340;10.776;2022-09-29T12:16:28;12.88;;;4.68;;
36995;SDS011;22905;50.340;10.776;2022-09-29T12:21:32;6.35;;;4.60;;
36995;SDS011;22905;50.340;10.776;2022-09-29T12:31:35;5.30;;;3.95;;
36995;SDS011;22905;50.340;10.776;2022-09-29T12:36:42;5.22;;;4.30;;
36995;SDS011;22905;50.340;10.776;2022-09-29T12:41:50;7.90;;;3.72;;
36995;SDS011;22905;50.340;10.776;2022-09-29T12:46:56;5.35;;;3.35;;
36995;SDS011;22905;50.340;10.776;2022-09-29T12:52:00;9.07;;;3.63;;
36995;SDS011;22905;50.340;10.776;2022-09-29T12:57:07;7.53;;;3.33;;
36995;SDS011;22905;50.340;10.776;2022-09-29T13:02:18;5.35;;;3.00;;
36995;SDS011;22905;50.340;10.776;2022-09-29T13:12:47;11.05;;;4.18;;
36995;SDS011;22905;50.340;10.776;2022-09-29T13:18:04;7.90;;;4.38;;
36995;SDS011;22905;50.340;10.776;2022-09-29T13:23:13;8.77;;;3.67;;
36995;SDS011;22905;50.340;10.776;2022-09-29T13:33:33;10.90;;;3.70;;
36995;SDS011;22905;50.340;10.776;2022-09-29T13:38:37;7.38;;;2.90;;
36995;SDS011;22905;50.340;10.776;2022-09-29T13:43:39;8.80;;;3.25;;
36995;SDS011;22905;50.340;10.776;2022-09-29T13:59:22;4.40;;;2.58;;
36995;SDS011;22905;50.340;10.776;2022-09-29T14:09:44;3.15;;;2.17;;
36995;SDS011;22905;50.340;10.776;2022-09-29T14:14:46;2.70;;;2.00;;
36995;SDS011;22905;50.340;10.776;2022-09-29T14:40:31;12.52;;;5.95;;
36995;SDS011;22905;50.340;10.776;2022-09-29T14:45:34;4.57;;;2.65;;
36995;SDS011;22905;50.340;10.776;2022-09-29T14:51:08;3.88;;;2.58;;
36995;SDS011;22905;50.340;10.776;2022-09-29T15:02:23;4.85;;;2.60;;
36995;SDS011;22905;50.340;10.776;2022-09-29T15:07:26;4.40;;;2.53;;
36995;SDS011;22905;50.340;10.776;2022-09-29T15:12:27;7.38;;;2.50;;
36995;SDS011;22905;50.340;10.776;2022-09-29T15:17:39;8.93;;;3.38;;
36995;SDS011;22905;50.340;10.776;2022-09-29T15:28:14;3.53;;;2.28;;
36995;SDS011;22905;50.340;10.776;2022-09-29T15:33:24;4.82;;;2.60;;
36995;SDS011;22905;50.340;10.776;2022-09-29T15:43:40;5.85;;;2.85;;
36995;SDS011;22905;50.340;10.776;2022-09-29T15:48:56;5.63;;;3.72;;
36995;SDS011;22905;50.340;10.776;2022-09-29T15:54:03;7.50;;;2.97;;
36995;SDS011;22905;50.340;10.776;2022-09-29T15:59:16;9.55;;;4.90;;
36995;SDS011;22905;50.340;10.776;2022-09-29T16:04:17;9.43;;;5.15;;
36995;SDS011;22905;50.340;10.776;2022-09-29T16:09:18;7.35;;;4.00;;
36995;SDS011;22905;50.340;10.776;2022-09-29T16:14:22;6.03;;;3.63;;
36995;SDS011;22905;50.340;10.776;2022-09-29T16:19:28;6.13;;;3.90;;
36995;SDS011;22905;50.340;10.776;2022-09-29T16:24:31;11.30;;;5.13;;
36995;SDS011;22905;50.340;10.776;2022-09-29T16:29:35;16.05;;;6.40;;
36995;SDS011;22905;50.340;10.776;2022-09-29T16:34:36;9.20;;;4.93;;
36995;SDS011;22905;50.340;10.776;2022-09-29T16:39:41;15.25;;;6.30;;
36995;SDS011;22905;50.340;10.776;2022-09-29T16:44:43;12.73;;;6.68;;
36995;SDS011;22905;50.340;10.776;2022-09-29T16:49:50;14.02;;;7.53;;
36995;SDS011;22905;50.340;10.776;2022-09-29T16:55:10;15.02;;;7.95;;
36995;SDS011;22905;50.340;10.776;2022-09-29T17:00:15;13.85;;;8.23;;
36995;SDS011;22905;50.340;10.776;2022-09-29T17:05:16;27.52;;;12.00;;
36995;SDS011;22905;50.340;10.776;2022-09-29T17:10:18;13.65;;;5.82;;
36995;SDS011;22905;50.340;10.776;2022-09-29T17:15:20;11.35;;;5.65;;
36995;SDS011;22905;50.340;10.776;2022-09-29T17:20:21;12.02;;;5.43;;
36995;SDS011;22905;50.340;10.776;2022-09-29T17:25:28;8.18;;;4.03;;
36995;SDS011;22905;50.340;10.776;2022-09-29T17:30:28;5.40;;;3.47;;
36995;SDS011;22905;50.340;10.776;2022-09-29T17:35:29;8.10;;;4.10;;
36995;SDS011;22905;50.340;10.776;2022-09-29T17:40:48;15.05;;;4.45;;
36995;SDS011;22905;50.340;10.776;2022-09-29T17:45:50;11.05;;;4.82;;
36995;SDS011;22905;50.340;10.776;2022-09-29T17:50:51;11.75;;;4.40;;
36995;SDS011;22905;50.340;10.776;2022-09-29T17:55:55;6.55;;;3.72;;
36995;SDS011;22905;50.340;10.776;2022-09-29T18:00:56;10.35;;;5.00;;
36995;SDS011;22905;50.340;10.776;2022-09-29T18:05:57;8.20;;;4.35;;
36995;SDS011;22905;50.340;10.776;2022-09-29T18:10:59;7.50;;;4.07;;
36995;SDS011;22905;50.340;10.776;2022-09-29T18:16:00;14.23;;;6.35;;
36995;SDS011;22905;50.340;10.776;2022-09-29T18:21:01;14.60;;;7.23;;
36995;SDS011;22905;50.340;10.776;2022-09-29T18:26:03;9.52;;;5.18;;
36995;SDS011;22905;50.340;10.776;2022-09-29T18:31:05;6.97;;;4.70;;
36995;SDS011;22905;50.340;10.776;2022-09-29T18:36:09;10.00;;;4.32;;
36995;SDS011;22905;50.340;10.776;2022-09-29T18:41:17;4.80;;;3.50;;
36995;SDS011;22905;50.340;10.776;2022-09-29T18:46:22;6.18;;;3.80;;
36995;SDS011;22905;50.340;10.776;2022-09-29T18:51:22;3.78;;;3.00;;
36995;SDS011;22905;50.340;10.776;2022-09-29T18:56:23;7.40;;;4.15;;
36995;SDS011;22905;50.340;10.776;2022-09-29T19:01:23;7.38;;;3.95;;
36995;SDS011;22905;50.340;10.776;2022-09-29T19:06:26;9.80;;;4.40;;
36995;SDS011;22905;50.340;10.776;2022-09-29T19:11:27;9.57;;;3.90;;
36995;SDS011;22905;50.340;10.776;2022-09-29T19:16:28;10.30;;;4.60;;
36995;SDS011;22905;50.340;10.776;2022-09-29T19:21:30;7.53;;;4.33;;
36995;SDS011;22905;50.340;10.776;2022-09-29T19:26:31;8.93;;;5.75;;
36995;SDS011;22905;50.340;10.776;2022-09-29T19:31:32;11.35;;;5.35;;
36995;SDS011;22905;50.340;10.776;2022-09-29T19:36:32;6.68;;;4.97;;
36995;SDS011;22905;50.340;10.776;2022-09-29T19:41:35;10.75;;;5.90;;
36995;SDS011;22905;50.340;10.776;2022-09-29T19:46:36;7.03;;;5.03;;
36995;SDS011;22905;50.340;10.776;2022-09-29T19:51:36;16.40;;;9.57;;
36995;SDS011;22905;50.340;10.776;2022-09-29T20:01:56;6.82;;;4.50;;
36995;SDS011;22905;50.340;10.776;2022-09-29T20:06:57;5.90;;;3.83;;
36995;SDS011;22905;50.340;10.776;2022-09-29T20:11:57;10.13;;;5.47;;
36995;SDS011;22905;50.340;10.776;2022-09-29T20:16:58;10.57;;;6.47;;
36995;SDS011;22905;50.340;10.776;2022-09-29T20:21:58;15.90;;;8.93;;
36995;SDS011;22905;50.340;10.776;2022-09-29T20:26:59;24.30;;;13.57;;
36995;SDS011;22905;50.340;10.776;2022-09-29T20:32:00;19.77;;;11.45;;
36995;SDS011;22905;50.340;10.776;2022-09-29T20:37:00;17.83;;;11.40;;
36995;SDS011;22905;50.340;10.776;2022-09-29T20:42:00;11.57;;;8.10;;
36995;SDS011;22905;50.340;10.776;2022-09-29T20:47:02;9.73;;;6.15;;
36995;SDS011;22905;50.340;10.776;2022-09-29T20:52:02;14.17;;;7.30;;
36995;SDS011;22905;50.340;10.776;2022-09-29T20:57:02;25.73;;;14.87;;
36995;SDS011;22905;50.340;10.776;2022-09-29T21:02:03;24.33;;;13.25;;
36995;SDS011;22905;50.340;10.776;2022-09-29T21:07:03;20.80;;;9.60;;
36995;SDS011;22905;50.340;10.776;2022-09-29T21:12:03;17.83;;;8.80;;
36995;SDS011;22905;50.340;10.776;2022-09-29T21:17:04;15.65;;;8.60;;
36995;SDS011;22905;50.340;10.776;2022-09-29T21:22:04;12.93;;;8.30;;
36995;SDS011;22905;50.340;10.776;2022-09-29T21:27:05;19.17;;;10.02;;
36995;SDS011;22905;50.340;10.776;2022-09-29T21:32:05;11.05;;;7.20;;
36995;SDS011;22905;50.340;10.776;2022-09-29T21:37:06;13.73;;;6.63;;
36995;SDS011;22905;50.340;10.776;2022-09-29T21:42:06;7.00;;;5.03;;
36995;SDS011;22905;50.340;10.776;2022-09-29T21:47:06;7.50;;;4.78;;
36995;SDS011;22905;50.340;10.776;2022-09-29T21:52:07;11.77;;;4.37;;
36995;SDS011;22905;50.340;10.776;2022-09-29T21:57:07;7.50;;;4.53;;
36995;SDS011;22905;50.340;10.776;2022-09-29T22:02:08;7.00;;;4.07;;
36995;SDS011;22905;50.340;10.776;2022-09-29T22:07:09;5.97;;;4.60;;
36995;SDS011;22905;50.340;10.776;2022-09-29T22:12:10;8.98;;;5.25;;
36995;SDS011;22905;50.340;10.776;2022-09-29T22:17:11;6.43;;;4.80;;
36995;SDS011;22905;50.340;10.776;2022-09-29T22:22:13;7.57;;;5.10;;
36995;SDS011;22905;50.340;10.776;2022-09-29T22:27:13;10.15;;;5.78;;
36995;SDS011;22905;50.340;10.776;2022-09-29T22:32:14;6.63;;;4.57;;
36995;SDS011;22905;50.340;10.776;2022-09-29T22:37:14;8.48;;;4.82;;
36995;SDS011;22905;50.340;10.776;2022-09-29T22:42:15;6.28;;;5.07;;
36995;SDS011;22905;50.340;10.776;2022-09-29T22:47:15;9.60;;;4.43;;
36995;SDS011;22905;50.340;10.776;2022-09-29T22:52:15;8.90;;;4.15;;
36995;SDS011;22905;50.340;10.776;2022-09-29T22:57:16;9.13;;;4.95;;
36995;SDS011;22905;50.340;10.776;2022-09-29T23:02:16;9.57;;;4.22;;
36995;SDS011;22905;50.340;10.776;2022-09-29T23:07:17;13.73;;;7.47;;
36995;SDS011;22905;50.340;10.776;2022-09-29T23:12:17;7.37;;;5.37;;
36995;SDS011;22905;50.340;10.776;2022-09-29T23:17:18;5.45;;;3.95;;
36995;SDS011;22905;50.340;10.776;2022-09-29T23:22:18;4.38;;;3.42;;
36995;SDS011;22905;50.340;10.776;2022-09-29T23:27:18;6.22;;;3.75;;
36995;SDS011;22905;50.340;10.776;2022-09-29T23:32:19;7.20;;;4.73;;
36995;SDS011;22905;50.340;10.776;2022-09-29T23:37:19;6.40;;;4.87;;
36995;SDS011;22905;50.340;10.776;2022-09-29T23:42:19;7.35;;;4.82;;
36995;SDS011;22905;50.340;10.776;2022-09-29T23:47:20;8.77;;;4.72;;
36995;SDS011;22905;50.340;10.776;2022-09-29T23:52:20;9.77;;;5.27;;
36995;SDS011;22905;50.340;10.776;2022-09-29T23:57:21;6.32;;;5.03;;
